createdAt,value
2023-01-13T05:47:36.950Z,0.40
2023-01-13T05:50:05.468Z,0.52
2023-01-13T05:52:33.398Z,0.30
2023-01-13T05:55:01.463Z,0.40
2023-01-13T05:57:29.569Z,0.35
2023-01-13T05:59:57.451Z,0.20
2023-01-13T06:02:26.624Z,0.38
2023-01-13T06:04:55.984Z,0.35
2023-01-13T06:07:23.948Z,0.40
2023-01-13T06:09:51.903Z,0.50
2023-01-13T06:12:19.800Z,0.35
2023-01-13T06:14:47.739Z,0.30
2023-01-13T06:17:17.197Z,0.30
2023-01-13T06:19:45.188Z,0.30
2023-01-13T06:22:17.506Z,0.35
2023-01-13T06:24:46.961Z,0.30
2023-01-13T06:27:15.420Z,0.30
2023-01-13T06:29:43.650Z,0.30
2023-01-13T06:32:17.545Z,0.32
2023-01-13T06:34:48.598Z,0.50
2023-01-13T06:37:25.409Z,0.28
2023-01-13T06:39:58.088Z,0.20
2023-01-13T06:42:44.035Z,0.32
2023-01-13T06:45:12.483Z,0.30
2023-01-13T06:47:40.517Z,0.20
2023-01-13T06:50:09.221Z,0.45
2023-01-13T06:52:38.672Z,0.40
2023-01-13T06:55:07.423Z,0.50
2023-01-13T06:57:35.309Z,0.35
2023-01-13T07:00:03.593Z,0.30
2023-01-13T07:02:31.619Z,0.30
2023-01-13T07:04:59.634Z,0.20
2023-01-13T07:07:28.594Z,0.40
2023-01-13T07:09:57.972Z,0.30
2023-01-13T07:12:26.209Z,0.20
2023-01-13T07:15:22.962Z,0.40
2023-01-13T07:17:50.949Z,0.30
2023-01-13T07:20:19.093Z,0.20
2023-01-13T07:22:47.183Z,0.30
2023-01-13T07:25:16.640Z,0.30
2023-01-13T07:27:44.611Z,0.40
2023-01-13T07:30:13.712Z,0.50
2023-01-13T07:32:41.726Z,0.40
2023-01-13T07:35:09.863Z,0.40
2023-01-13T07:37:39.381Z,0.30
2023-01-13T07:40:10.047Z,0.20
2023-01-13T07:42:58.482Z,0.28
2023-01-13T15:02:44.011Z,1.98
2023-01-13T15:05:32.895Z,1.80
2023-01-13T15:08:04.632Z,2.53
2023-01-13T15:10:34.731Z,1.98
2023-01-13T15:13:05.219Z,1.60
2023-01-13T15:15:35.922Z,2.03
2023-01-13T15:18:14.252Z,1.40
2023-01-13T15:20:42.852Z,1.92
2023-01-13T15:23:11.351Z,1.75
2023-01-13T15:25:41.295Z,1.85
2023-01-13T15:28:18.901Z,2.08
2023-01-13T15:30:47.235Z,1.80
2023-01-13T15:33:17.616Z,1.67
2023-01-13T15:35:48.656Z,2.10
2023-01-13T15:38:18.831Z,1.58
2023-01-13T15:40:47.624Z,2.28
2023-01-13T15:43:34.520Z,2.30
2023-01-13T15:46:17.411Z,5.20
2023-01-13T15:48:47.023Z,1.92
2023-01-13T15:51:21.169Z,3.58
2023-01-13T15:53:49.159Z,2.55
2023-01-13T15:56:22.637Z,2.17
2023-01-13T15:58:50.554Z,2.03
2023-01-13T16:01:18.674Z,2.40
2023-01-13T16:03:48.119Z,2.10
2023-01-13T16:06:20.277Z,2.40
2023-01-13T16:08:48.684Z,4.25
2023-01-13T16:11:17.149Z,7.55
2023-01-13T16:13:45.250Z,6.07
2023-01-13T16:16:19.967Z,6.32
2023-01-13T16:18:50.243Z,6.25
2023-01-13T16:21:19.333Z,7.72
2023-01-13T16:23:48.191Z,3.20
2023-01-13T16:26:21.720Z,3.03
2023-01-13T16:28:50.795Z,2.58
2023-01-13T16:31:24.152Z,3.60
2023-01-13T16:33:53.921Z,2.10
2023-01-13T16:36:23.572Z,5.13
2023-01-13T16:38:53.320Z,4.57
2023-01-13T16:41:24.840Z,2.25
2023-01-13T16:43:53.380Z,2.80
2023-01-13T16:46:24.471Z,3.05
2023-01-13T16:48:54.988Z,3.13
2023-01-13T16:51:24.721Z,2.00
2023-01-13T16:53:52.815Z,3.55
2023-01-13T16:56:27.902Z,2.25
2023-01-13T16:58:58.210Z,2.13
2023-01-13T17:01:29.070Z,2.70
2023-01-13T17:03:59.721Z,3.50
2023-01-13T17:06:33.031Z,3.40
2023-01-13T17:09:05.774Z,2.58
2023-01-13T17:11:34.124Z,3.20
2023-01-13T17:14:04.414Z,2.13
2023-01-13T17:16:47.170Z,2.40
2023-01-13T17:19:16.827Z,2.45
2023-01-13T17:21:47.057Z,1.88
2023-01-13T17:24:15.603Z,1.50
2023-01-13T17:26:47.222Z,2.15
2023-01-13T17:29:17.360Z,2.00
2023-01-13T17:31:45.841Z,1.83
2023-01-13T17:34:14.067Z,1.77
2023-01-13T17:36:43.910Z,2.53
2023-01-13T17:39:16.970Z,2.50
2023-01-13T17:41:44.968Z,2.33
2023-01-13T17:44:14.495Z,2.30
2023-01-13T17:46:42.750Z,2.45
2023-01-13T17:49:11.629Z,2.00
2023-01-13T17:51:39.948Z,1.85
2023-01-13T17:54:12.298Z,1.15
2023-01-13T17:56:41.478Z,1.35
2023-01-13T17:59:10.605Z,0.95
2023-01-13T18:01:39.318Z,6.15
2023-01-13T18:04:07.888Z,2.13
2023-01-13T18:06:35.904Z,1.38
2023-01-13T18:09:03.993Z,1.98
2023-01-13T18:11:33.355Z,1.70
2023-01-13T18:14:01.383Z,1.20
2023-01-13T18:16:31.675Z,0.82
2023-01-13T18:19:14.630Z,1.00
2023-01-13T18:22:00.280Z,1.13
2023-01-13T18:24:45.915Z,0.93
2023-01-13T18:27:23.509Z,0.90
2023-01-13T18:29:53.155Z,0.98
2023-01-13T18:32:22.203Z,1.05
2023-01-13T18:34:58.691Z,0.90
2023-01-13T18:37:35.876Z,1.10
2023-01-13T18:40:05.101Z,6.20
2023-01-13T18:42:51.888Z,2.85
2023-01-13T18:45:20.520Z,1.90
2023-01-13T18:47:48.573Z,3.70
2023-01-13T18:50:17.562Z,1.60
2023-01-13T18:52:45.760Z,1.58
2023-01-13T18:55:13.971Z,2.03
2023-01-13T18:57:43.594Z,1.20
2023-01-13T19:00:13.823Z,1.05
2023-01-13T19:02:42.010Z,1.20
2023-01-13T19:05:10.670Z,1.02
2023-01-13T19:07:39.106Z,0.68
2023-01-13T19:10:09.839Z,1.00
2023-01-13T19:12:37.873Z,0.60
2023-01-13T19:15:08.855Z,0.80
2023-01-13T19:17:37.436Z,0.68
2023-01-13T19:20:06.156Z,0.90
2023-01-13T19:22:35.755Z,0.90
2023-01-13T19:25:05.039Z,0.80
2023-01-13T19:27:33.129Z,1.15
2023-01-13T19:30:01.833Z,1.10
2023-01-13T19:32:34.281Z,1.00
2023-01-13T19:35:02.271Z,1.08
2023-01-13T19:37:31.516Z,1.20
2023-01-13T19:40:00.083Z,1.48
2023-01-13T19:42:45.658Z,1.58
2023-01-13T19:45:31.779Z,1.80
2023-01-13T19:48:04.898Z,1.88
2023-01-13T19:50:36.074Z,5.45
2023-01-13T19:53:04.186Z,2.05
2023-01-13T19:55:32.669Z,2.28
2023-01-13T19:58:00.836Z,1.60
2023-01-13T20:00:29.228Z,1.63
2023-01-13T20:03:03.303Z,2.20
2023-01-13T20:05:32.886Z,4.10
2023-01-13T20:08:00.953Z,2.88
2023-01-13T20:10:30.496Z,3.42
2023-01-13T20:12:58.854Z,2.97
2023-01-13T20:15:26.945Z,2.40
2023-01-13T20:17:54.961Z,1.63
2023-01-13T20:20:22.976Z,2.97
2023-01-13T20:22:52.331Z,1.65
2023-01-13T20:25:20.795Z,1.90
2023-01-13T20:27:49.624Z,2.08
2023-01-13T20:30:17.736Z,1.60
2023-01-13T20:32:46.005Z,1.60
2023-01-13T20:35:14.016Z,1.70
2023-01-13T20:37:43.474Z,1.92
2023-01-13T20:40:16.011Z,1.52
2023-01-13T20:42:45.684Z,1.70
2023-01-13T20:45:17.555Z,1.90
2023-01-13T20:47:46.291Z,1.80
2023-01-13T20:50:15.339Z,1.40
2023-01-13T20:52:43.577Z,1.63
2023-01-13T20:55:13.271Z,1.60
2023-01-13T20:57:41.889Z,1.60
